createdAt,value
2019-02-14T00:00:11.625Z,77.85
2019-02-14T00:01:11.632Z,77.75
2019-02-14T00:02:11.607Z,78.06
2019-02-14T00:03:19.127Z,77.68
2019-02-14T00:04:11.578Z,77.75
2019-02-14T00:05:16.547Z,77.95
2019-02-14T00:06:12.581Z,77.89
2019-02-14T00:07:11.553Z,78.06
2019-02-14T00:08:11.544Z,78.58
2019-02-14T00:09:11.555Z,77.99
2019-02-14T00:10:11.516Z,77.89
2019-02-14T00:11:11.528Z,77.89
2019-02-14T00:12:11.515Z,77.85
2019-02-14T00:13:11.514Z,77.85
2019-02-14T00:14:11.478Z,78.06
2019-02-14T00:15:11.461Z,78.06
2019-02-14T00:16:11.473Z,78.09
2019-02-14T00:17:11.459Z,78.47
2019-02-14T00:18:11.464Z,78.41
2019-02-14T00:19:11.429Z,78.37
2019-02-14T00:20:11.408Z,78.37
2019-02-14T00:21:11.395Z,78.37
2019-02-14T00:22:11.409Z,78.27
2019-02-14T00:23:11.391Z,78.47
2019-02-14T00:24:11.369Z,77.85
2019-02-14T00:25:11.355Z,77.95
2019-02-14T00:26:11.368Z,78.30
2019-02-14T00:27:11.394Z,77.89
2019-02-14T00:28:11.349Z,78.30
2019-02-14T00:29:11.373Z,78.09
2019-02-14T00:30:11.311Z,77.78
2019-02-14T00:31:11.323Z,77.78
2019-02-14T00:32:11.305Z,78.41
2019-02-14T00:33:11.266Z,77.99
2019-02-14T00:34:11.257Z,78.09
2019-02-14T00:35:11.240Z,77.99
2019-02-14T00:36:11.233Z,77.99
2019-02-14T00:37:11.249Z,77.89
2019-02-14T00:38:11.240Z,77.78
2019-02-14T00:39:11.200Z,78.09
2019-02-14T00:40:11.198Z,77.99
2019-02-14T00:41:11.180Z,77.99
2019-02-14T00:42:11.222Z,77.89
2019-02-14T00:43:11.180Z,77.78
2019-02-14T00:44:11.182Z,78.41
2019-02-14T00:45:11.137Z,78.09
2019-02-14T00:46:11.122Z,78.51
2019-02-14T00:47:11.112Z,77.99
2019-02-14T00:48:11.118Z,78.20
2019-02-14T00:49:11.094Z,78.09
2019-02-14T00:50:11.077Z,78.30
2019-02-14T00:51:11.072Z,77.99
2019-02-14T00:52:11.068Z,78.13
2019-02-14T00:53:11.069Z,77.99
2019-02-14T00:54:11.047Z,78.41
2019-02-14T00:55:11.038Z,78.13
2019-02-14T00:56:11.073Z,78.09
2019-02-14T00:57:11.002Z,78.09
2019-02-14T00:58:11.023Z,78.44
2019-02-14T00:59:10.980Z,78.03
2019-02-14T01:00:10.973Z,78.41
2019-02-14T01:01:10.979Z,78.41
2019-02-14T01:02:10.951Z,78.03
2019-02-14T01:03:19.894Z,78.13
2019-02-14T01:04:10.925Z,78.03
2019-02-14T01:05:10.923Z,78.13
2019-02-14T01:06:10.936Z,78.23
2019-02-14T01:07:10.898Z,77.72
2019-02-14T01:08:10.925Z,77.82
2019-02-14T01:09:10.871Z,77.99
2019-02-14T01:10:10.862Z,78.13
2019-02-14T01:11:10.865Z,78.20
2019-02-14T01:12:10.845Z,77.92
2019-02-14T01:13:10.839Z,77.82
2019-02-14T01:14:10.877Z,77.82
2019-02-14T01:15:10.816Z,77.78
2019-02-14T01:16:10.803Z,77.72
2019-02-14T01:17:10.791Z,77.68
2019-02-14T01:18:10.807Z,78.03
2019-02-14T01:19:10.786Z,78.23
2019-02-14T01:20:10.762Z,77.82
2019-02-14T01:21:10.756Z,77.68
2019-02-14T01:22:10.779Z,77.92
2019-02-14T01:23:10.774Z,78.23
2019-02-14T01:24:10.761Z,77.82
2019-02-14T01:25:10.714Z,77.82
2019-02-14T01:26:10.689Z,77.82
2019-02-14T01:27:10.694Z,77.92
2019-02-14T01:28:10.686Z,77.92
2019-02-14T01:29:10.678Z,78.03
2019-02-14T01:30:10.651Z,78.03
2019-02-14T01:31:10.694Z,78.23
2019-02-14T01:32:10.627Z,77.30
2019-02-14T01:33:10.620Z,77.72
2019-02-14T01:34:10.632Z,77.61
2019-02-14T01:35:10.623Z,77.82
2019-02-14T01:36:10.590Z,77.82
2019-02-14T01:37:10.601Z,77.61
2019-02-14T01:38:10.567Z,77.51
2019-02-14T01:39:10.604Z,77.51
2019-02-14T01:40:10.545Z,77.51
2019-02-14T01:41:10.539Z,77.61
2019-02-14T01:42:10.526Z,78.03
2019-02-14T01:43:10.517Z,78.23
2019-02-14T01:44:10.522Z,77.82
2019-02-14T01:45:10.495Z,78.03
2019-02-14T01:46:10.484Z,78.13
2019-02-14T01:47:10.475Z,77.92
2019-02-14T01:48:10.464Z,78.13
2019-02-14T01:49:10.490Z,78.13
2019-02-14T01:50:10.442Z,78.13
2019-02-14T01:51:10.434Z,77.92
2019-02-14T01:52:10.432Z,78.23
2019-02-14T01:53:10.406Z,78.34
2019-02-14T01:54:10.399Z,78.44
2019-02-14T01:55:10.402Z,78.27
2019-02-14T01:56:10.383Z,78.55
2019-02-14T01:57:10.394Z,77.96
2019-02-14T01:58:10.352Z,78.34
2019-02-14T01:59:10.408Z,78.23
2019-02-14T02:00:10.356Z,78.48
2019-02-14T02:01:10.321Z,78.48
2019-02-14T02:02:10.320Z,78.58
2019-02-14T02:03:10.309Z,78.58
2019-02-14T02:04:10.296Z,78.58
2019-02-14T02:05:10.298Z,78.48
2019-02-14T02:06:10.305Z,79.00
2019-02-14T02:07:10.264Z,78.38
2019-02-14T02:08:10.248Z,78.58
2019-02-14T02:09:10.240Z,78.38
2019-02-14T02:10:10.250Z,78.58
2019-02-14T02:11:10.242Z,78.79
2019-02-14T02:12:10.219Z,78.58
2019-02-14T02:13:10.220Z,78.58
2019-02-14T02:14:10.187Z,78.48
2019-02-14T02:15:10.225Z,78.48
2019-02-14T02:16:10.188Z,78.48
2019-02-14T02:17:10.152Z,78.58
2019-02-14T02:18:10.143Z,78.38
2019-02-14T02:19:10.151Z,78.27
2019-02-14T02:20:10.126Z,78.69
2019-02-14T02:21:10.135Z,78.79
2019-02-14T02:22:10.144Z,78.89
2019-02-14T02:23:10.121Z,79.52
2019-02-14T02:24:10.079Z,79.62
2019-02-14T02:25:10.090Z,80.04
2019-02-14T02:26:10.093Z,80.29
2019-02-14T02:27:10.053Z,80.08
2019-02-14T02:28:10.051Z,79.94
2019-02-14T02:29:10.030Z,80.49
2019-02-14T02:30:10.042Z,80.15
2019-02-14T02:31:10.030Z,79.94
2019-02-14T02:32:09.996Z,80.35
2019-02-14T02:33:09.987Z,80.49
2019-02-14T02:34:09.973Z,80.49
2019-02-14T02:35:09.966Z,80.49
2019-02-14T02:36:09.978Z,80.70
2019-02-14T02:37:09.946Z,80.70
2019-02-14T02:38:09.948Z,80.49
2019-02-14T02:39:09.946Z,80.80
2019-02-14T02:40:09.921Z,80.70
2019-02-14T02:41:09.905Z,80.80
2019-02-14T02:42:09.904Z,80.18
2019-02-14T02:43:09.878Z,80.60
2019-02-14T02:44:09.872Z,80.60
2019-02-14T02:45:09.857Z,80.80
2019-02-14T02:46:09.844Z,80.91
2019-02-14T02:47:09.849Z,81.12
2019-02-14T02:48:09.824Z,80.74
2019-02-14T02:49:09.814Z,80.80
2019-02-14T02:50:17.342Z,80.60
2019-02-14T02:51:09.789Z,80.91
2019-02-14T02:52:09.810Z,80.63
2019-02-14T02:53:09.810Z,80.70
2019-02-14T02:54:09.765Z,80.63
2019-02-14T02:55:09.754Z,80.94
2019-02-14T02:56:09.753Z,80.94
2019-02-14T02:57:09.769Z,81.01
2019-02-14T02:58:17.260Z,81.12
2019-02-14T02:59:09.710Z,81.22
2019-02-14T03:00:09.694Z,81.15
2019-02-14T03:01:09.688Z,81.26
2019-02-14T03:02:09.691Z,81.26
2019-02-14T03:03:09.663Z,81.32
2019-02-14T03:04:09.662Z,81.15
2019-02-14T03:05:09.643Z,81.15
2019-02-14T03:06:10.814Z,81.36
2019-02-14T03:07:09.639Z,81.46
2019-02-14T03:08:09.633Z,81.36
2019-02-14T03:09:09.597Z,81.26
2019-02-14T03:10:09.590Z,81.15
2019-02-14T03:11:09.595Z,81.15
2019-02-14T03:12:09.586Z,81.15
2019-02-14T03:13:09.577Z,81.36
2019-02-14T03:14:09.549Z,81.36
2019-02-14T03:15:09.535Z,81.36
2019-02-14T03:16:09.525Z,80.94
2019-02-14T03:17:09.541Z,80.84
2019-02-14T03:18:09.523Z,80.53
2019-02-14T03:19:09.536Z,80.53
2019-02-14T03:20:09.499Z,80.74
2019-02-14T03:21:09.465Z,80.84
2019-02-14T03:22:09.473Z,80.88
2019-02-14T03:23:09.478Z,80.43
2019-02-14T03:24:09.439Z,80.88
2019-02-14T03:25:09.425Z,80.74
2019-02-14T03:26:09.457Z,80.98
2019-02-14T03:27:09.422Z,80.94
2019-02-14T03:28:09.387Z,80.94
2019-02-14T03:29:09.408Z,80.88
2019-02-14T03:30:09.392Z,80.46
2019-02-14T03:31:09.363Z,80.63
2019-02-14T03:32:09.389Z,80.53
2019-02-14T03:33:09.360Z,80.84
2019-02-14T03:34:09.326Z,81.29
2019-02-14T03:35:09.325Z,81.40
2019-02-14T03:36:09.303Z,81.40
2019-02-14T03:37:09.301Z,81.19
2019-02-14T03:38:09.304Z,81.40
2019-02-14T03:39:09.284Z,81.29
2019-02-14T03:40:09.261Z,81.29
2019-02-14T03:41:09.249Z,81.29
2019-02-14T03:42:09.327Z,81.19
2019-02-14T03:43:09.269Z,81.09
2019-02-14T03:44:09.223Z,81.19
2019-02-14T03:45:09.276Z,81.40
2019-02-14T03:46:09.194Z,81.19
2019-02-14T03:47:09.186Z,81.29
2019-02-14T03:48:09.218Z,81.60
2019-02-14T03:49:09.166Z,81.60
2019-02-14T03:50:09.161Z,81.60
2019-02-14T03:51:09.168Z,81.50
2019-02-14T03:52:09.156Z,81.19
2019-02-14T03:53:09.144Z,81.50
2019-02-14T03:54:09.112Z,81.65
2019-02-14T03:55:09.114Z,81.54
2019-02-14T03:56:09.090Z,81.40
2019-02-14T03:57:09.081Z,81.85
2019-02-14T03:58:09.109Z,81.50
2019-02-14T03:59:09.066Z,81.50
2019-02-14T04:00:09.051Z,81.29
2019-02-14T04:01:09.079Z,81.54
2019-02-14T04:02:09.025Z,81.54
2019-02-14T04:03:09.039Z,81.43
2019-02-14T04:04:09.000Z,81.54
2019-02-14T04:05:08.992Z,81.54
2019-02-14T04:06:09.004Z,81.60
2019-02-14T04:07:09.654Z,81.60
2019-02-14T04:08:08.981Z,81.50
2019-02-14T04:09:08.969Z,81.50
2019-02-14T04:10:08.946Z,82.13
2019-02-14T04:11:08.960Z,81.60
2019-02-14T04:12:08.922Z,82.03
2019-02-14T04:13:08.907Z,82.03
2019-02-14T04:14:08.940Z,82.23
2019-02-14T04:15:08.886Z,82.54
2019-02-14T04:16:08.879Z,83.00
2019-02-14T04:17:08.862Z,82.58
2019-02-14T04:18:08.865Z,83.06
2019-02-14T04:19:08.869Z,83.17
2019-02-14T04:20:08.856Z,83.17
2019-02-14T04:21:08.826Z,83.27
2019-02-14T04:22:08.829Z,82.89
2019-02-14T04:23:08.826Z,82.68
2019-02-14T04:24:08.811Z,83.10
2019-02-14T04:25:08.780Z,82.96
2019-02-14T04:26:08.772Z,83.00
2019-02-14T04:27:08.784Z,83.00
2019-02-14T04:28:08.744Z,82.68
2019-02-14T04:29:08.775Z,82.79
2019-02-14T04:30:08.725Z,82.68
2019-02-14T04:31:08.717Z,82.86
2019-02-14T04:32:08.702Z,82.79
2019-02-14T04:33:08.701Z,82.89
2019-02-14T04:34:08.709Z,83.00
2019-02-14T04:35:08.670Z,83.10
2019-02-14T04:36:08.662Z,82.58
2019-02-14T04:37:08.664Z,82.58
2019-02-14T04:38:08.641Z,82.89
2019-02-14T04:39:08.730Z,82.37
2019-02-14T04:40:08.643Z,82.58
2019-02-14T04:41:08.609Z,82.27
2019-02-14T04:42:08.609Z,82.37
2019-02-14T04:43:08.590Z,82.20
2019-02-14T04:44:08.636Z,82.31
2019-02-14T04:45:08.583Z,82.17
2019-02-14T04:46:08.576Z,82.10
2019-02-14T04:47:08.546Z,82.31
2019-02-14T04:48:08.537Z,82.17
2019-02-14T04:49:08.538Z,82.20
2019-02-14T04:50:08.537Z,82.27
2019-02-14T04:51:08.500Z,82.72
2019-02-14T04:52:08.504Z,82.37
2019-02-14T04:53:08.517Z,82.51
2019-02-14T04:54:08.507Z,82.62
2019-02-14T04:55:08.456Z,82.62
2019-02-14T04:56:08.447Z,82.51
2019-02-14T04:57:08.454Z,82.41
2019-02-14T04:58:08.424Z,82.41
2019-02-14T04:59:08.477Z,82.62
2019-02-14T05:00:08.448Z,82.27
2019-02-14T05:01:08.402Z,82.62
2019-02-14T05:02:15.937Z,82.72
2019-02-14T05:03:08.368Z,83.14
2019-02-14T05:04:08.363Z,82.82
2019-02-14T05:05:08.364Z,82.68
2019-02-14T05:06:08.339Z,82.79
2019-02-14T05:07:08.718Z,82.41
2019-02-14T05:08:08.326Z,82.89
2019-02-14T05:09:08.307Z,82.37
2019-02-14T05:10:08.314Z,82.27
2019-02-14T05:11:08.279Z,82.20
2019-02-14T05:12:08.291Z,82.62
2019-02-14T05:13:08.266Z,82.41
2019-02-14T05:14:08.248Z,82.31
2019-02-14T05:15:08.258Z,82.20
2019-02-14T05:16:08.230Z,82.62
2019-02-14T05:18:36.981Z,82.51
2019-02-14T05:19:36.936Z,82.62
2019-02-14T05:20:36.984Z,82.51
2019-02-14T05:21:36.915Z,82.41
2019-02-14T05:22:36.908Z,82.31
2019-02-14T05:23:36.914Z,82.62
2019-02-14T05:24:36.885Z,82.20
2019-02-14T05:25:36.884Z,82.20
2019-02-14T05:26:36.883Z,82.62
2019-02-14T05:27:36.858Z,82.58
2019-02-14T05:28:36.852Z,82.31
2019-02-14T05:29:36.834Z,82.82
2019-02-14T05:30:36.824Z,82.82
2019-02-14T05:31:37.612Z,83.25
2019-02-14T05:32:36.798Z,82.93
2019-02-14T05:33:36.787Z,83.35
2019-02-14T05:34:36.794Z,83.45
2019-02-14T05:35:36.767Z,83.45
2019-02-14T05:36:37.032Z,83.35
2019-02-14T05:37:36.751Z,83.66
2019-02-14T05:38:44.295Z,83.35
2019-02-14T05:39:36.726Z,83.35
2019-02-14T05:40:36.720Z,83.04
2019-02-14T05:41:36.752Z,82.62
2019-02-14T05:42:36.812Z,83.18
2019-02-14T05:43:36.689Z,83.35
2019-02-14T05:44:44.244Z,82.93
2019-02-14T05:45:36.670Z,82.72
2019-02-14T05:46:45.477Z,82.82
2019-02-14T05:47:36.664Z,83.25
2019-02-14T05:48:36.634Z,83.25
2019-02-14T05:49:44.163Z,82.41
2019-02-14T05:50:36.615Z,82.41
2019-02-14T05:52:46.861Z,82.51
2019-02-14T05:53:46.824Z,82.31
2019-02-14T05:54:46.911Z,82.72
2019-02-14T05:55:46.825Z,82.51
2019-02-14T05:56:46.833Z,82.31
2019-02-14T05:57:46.783Z,83.25
2019-02-14T05:58:46.771Z,83.25
2019-02-14T05:59:46.796Z,82.93
2019-02-14T06:00:46.752Z,83.25
2019-02-14T06:01:46.757Z,83.14
2019-02-14T06:02:46.736Z,82.41
2019-02-14T06:03:54.282Z,82.41
2019-02-14T06:04:46.715Z,82.93
2019-02-14T06:05:54.269Z,83.35
2019-02-14T06:06:46.733Z,83.04
2019-02-14T06:07:46.682Z,82.72
2019-02-14T06:08:46.793Z,83.35
2019-02-14T06:09:46.668Z,83.39
2019-02-14T06:10:46.670Z,83.35
2019-02-14T06:11:46.662Z,83.28
2019-02-14T06:12:46.871Z,83.35
2019-02-14T06:13:46.624Z,83.49
2019-02-14T06:14:46.737Z,83.39
2019-02-14T06:15:46.601Z,82.93
2019-02-14T06:16:46.666Z,83.18
2019-02-14T06:17:46.578Z,83.14
2019-02-14T06:18:46.615Z,82.72
2019-02-14T06:19:46.565Z,83.04
2019-02-14T06:20:46.551Z,83.04
2019-02-14T06:21:46.607Z,82.82
2019-02-14T06:22:46.643Z,82.62
2019-02-14T06:23:46.519Z,83.14
2019-02-14T06:26:03.995Z,82.20
2019-02-14T06:27:03.977Z,82.97
2019-02-14T06:28:04.202Z,82.76
2019-02-14T06:29:03.934Z,82.45
2019-02-14T06:30:04.042Z,82.65
2019-02-14T06:31:03.920Z,82.34
2019-02-14T06:32:03.911Z,82.45
2019-02-14T06:33:03.888Z,82.34
2019-02-14T06:34:03.867Z,82.76
2019-02-14T06:35:03.853Z,82.45
2019-02-14T06:36:03.986Z,83.28
2019-02-14T06:37:09.480Z,83.07
2019-02-14T06:38:04.862Z,82.87
2019-02-14T06:39:03.811Z,83.07
2019-02-14T06:40:03.807Z,82.97
2019-02-14T06:41:03.817Z,83.07
2019-02-14T06:42:03.788Z,83.59
2019-02-14T06:43:03.798Z,83.07
2019-02-14T06:44:03.763Z,83.07
2019-02-14T06:45:03.755Z,82.65
2019-02-14T06:46:03.792Z,83.07
2019-02-14T06:47:04.801Z,83.07
2019-02-14T06:48:03.741Z,82.65
2019-02-14T06:49:03.712Z,82.87
2019-02-14T06:50:03.700Z,82.87
2019-02-14T06:51:03.737Z,82.87
2019-02-14T06:52:03.681Z,82.87
2019-02-14T06:53:03.714Z,82.76
2019-02-14T06:54:03.684Z,82.87
2019-02-14T06:55:03.648Z,83.18
2019-02-14T06:56:03.706Z,83.07
2019-02-14T06:57:03.626Z,82.97
2019-02-14T06:58:03.622Z,82.87
2019-02-14T06:59:03.638Z,83.18
2019-02-14T07:00:03.616Z,83.18
2019-02-14T07:01:03.582Z,83.18
2019-02-14T07:02:03.572Z,83.07
2019-02-14T07:03:03.565Z,82.72
2019-02-14T07:04:03.571Z,82.87
2019-02-14T07:05:03.583Z,82.55
2019-02-14T07:06:03.550Z,82.65
2019-02-14T07:07:03.519Z,82.76
2019-02-14T07:08:03.508Z,82.62
2019-02-14T07:09:03.525Z,82.76
2019-02-14T07:10:03.506Z,82.87
2019-02-14T07:11:03.518Z,81.99
2019-02-14T07:12:03.480Z,81.68
2019-02-14T07:13:03.495Z,81.58
2019-02-14T07:14:03.448Z,81.47
2019-02-14T07:15:03.462Z,81.58
2019-02-14T07:16:03.448Z,81.37
2019-02-14T07:17:03.421Z,81.79
2019-02-14T07:18:03.423Z,81.47
2019-02-14T07:19:03.398Z,81.26
2019-02-14T07:20:03.405Z,80.64
2019-02-14T07:21:03.388Z,80.74
2019-02-14T07:22:03.356Z,80.64
2019-02-14T07:23:03.378Z,80.71
2019-02-14T07:24:03.352Z,81.68
2019-02-14T07:25:03.366Z,81.43
2019-02-14T07:26:03.336Z,81.16
2019-02-14T07:27:03.314Z,80.95
2019-02-14T07:28:03.296Z,80.74
2019-02-14T07:29:03.292Z,80.85
2019-02-14T07:30:03.299Z,80.64
2019-02-14T07:31:03.270Z,80.74
2019-02-14T07:32:03.251Z,80.08
2019-02-14T07:33:03.244Z,80.19
2019-02-14T07:34:04.101Z,80.29
2019-02-14T07:35:03.266Z,80.08
2019-02-14T07:36:03.242Z,80.50
2019-02-14T07:37:03.208Z,80.50
2019-02-14T07:38:03.191Z,79.98
2019-02-14T07:39:03.186Z,80.46
2019-02-14T07:40:03.206Z,80.77
2019-02-14T07:41:03.164Z,80.77
2019-02-14T07:42:03.168Z,81.29
2019-02-14T07:43:03.138Z,81.19
2019-02-14T07:44:03.123Z,81.71
2019-02-14T07:45:03.130Z,81.71
2019-02-14T07:46:03.156Z,81.75
2019-02-14T07:47:03.099Z,81.19
2019-02-14T07:48:03.103Z,81.60
2019-02-14T07:49:03.069Z,81.19
2019-02-14T07:50:03.100Z,80.88
2019-02-14T07:51:03.047Z,80.88
2019-02-14T07:52:03.047Z,80.77
2019-02-14T07:53:10.579Z,80.67
2019-02-14T07:54:10.581Z,80.26
2019-02-14T07:56:20.818Z,80.26
2019-02-14T07:58:30.018Z,80.01
2019-02-14T08:00:39.251Z,79.38
2019-02-14T08:01:39.221Z,79.49
2019-02-14T08:02:39.207Z,79.17
2019-02-14T08:03:39.199Z,78.86
2019-02-14T08:04:47.738Z,78.76
2019-02-14T08:05:39.193Z,78.14
2019-02-14T08:06:39.173Z,77.83
2019-02-14T08:07:39.160Z,77.93
2019-02-14T08:08:39.155Z,78.34
2019-02-14T08:09:39.139Z,78.03
2019-02-14T08:10:39.149Z,78.14
2019-02-14T08:11:39.157Z,77.83
2019-02-14T08:12:39.120Z,77.93
2019-02-14T08:13:39.105Z,78.24
2019-02-14T08:14:39.113Z,78.24
2019-02-14T08:15:39.076Z,78.24
2019-02-14T08:16:39.100Z,78.34
2019-02-14T08:17:39.059Z,78.14
2019-02-14T08:18:39.049Z,78.55
2019-02-14T08:19:39.046Z,78.00
2019-02-14T08:20:39.024Z,78.00
2019-02-14T08:21:39.029Z,78.20
2019-02-14T08:22:39.002Z,78.41
2019-02-14T08:23:39.014Z,78.20
2019-02-14T08:24:38.983Z,77.89
2019-02-14T08:25:39.016Z,78.10
2019-02-14T08:26:38.983Z,78.24
2019-02-14T08:27:38.955Z,78.24
2019-02-14T08:28:38.940Z,78.34
2019-02-14T08:29:38.935Z,78.03
2019-02-14T08:30:38.951Z,78.03
2019-02-14T08:31:38.906Z,78.10
2019-02-14T08:32:38.895Z,78.31
2019-02-14T08:33:46.437Z,78.10
2019-02-14T08:34:38.870Z,77.58
2019-02-14T08:35:38.857Z,77.58
2019-02-14T08:36:38.871Z,77.58
2019-02-14T08:37:44.957Z,77.69
2019-02-14T08:38:39.871Z,76.43
2019-02-14T08:39:38.821Z,76.72
2019-02-14T08:40:38.812Z,76.64
2019-02-14T08:41:38.825Z,76.54
2019-02-14T08:42:38.797Z,76.51
2019-02-14T08:43:38.778Z,75.78
2019-02-14T08:44:38.767Z,76.09
2019-02-14T08:45:38.752Z,75.57
2019-02-14T08:46:38.766Z,76.19
2019-02-14T08:47:38.733Z,76.29
2019-02-14T08:48:38.738Z,75.64
2019-02-14T08:49:38.718Z,76.09
2019-02-14T08:50:38.708Z,76.16
2019-02-14T08:51:38.717Z,75.22
2019-02-14T08:52:38.702Z,75.12
2019-02-14T08:53:38.674Z,75.12
2019-02-14T08:54:38.655Z,74.70
2019-02-14T08:55:38.670Z,74.46
2019-02-14T08:56:38.667Z,74.46
2019-02-14T08:57:38.629Z,74.46
2019-02-14T08:58:38.621Z,74.57
2019-02-14T08:59:38.624Z,74.26
2019-02-14T09:00:38.593Z,73.49
2019-02-14T09:01:38.598Z,73.60
2019-02-14T09:02:38.572Z,73.70
2019-02-14T09:03:38.568Z,73.49
2019-02-14T09:04:38.548Z,73.49
2019-02-14T09:05:38.537Z,73.49
2019-02-14T09:06:38.553Z,73.80
2019-02-14T09:07:38.531Z,73.60
2019-02-14T09:08:38.509Z,73.39
2019-02-14T09:09:38.505Z,73.15
2019-02-14T09:10:38.517Z,73.36
2019-02-14T09:11:38.483Z,73.15
2019-02-14T09:12:38.481Z,73.05
2019-02-14T09:13:38.480Z,72.94
2019-02-14T09:14:38.467Z,72.39
2019-02-14T09:15:38.445Z,72.60
2019-02-14T09:16:38.425Z,72.39
2019-02-14T09:17:38.445Z,71.63
2019-02-14T09:18:38.403Z,71.53
2019-02-14T09:19:38.399Z,71.22
2019-02-14T09:20:38.379Z,70.39
2019-02-14T09:21:38.376Z,70.70
2019-02-14T09:22:38.381Z,71.01
2019-02-14T09:23:38.371Z,70.80
2019-02-14T09:24:38.344Z,70.49
2019-02-14T09:25:38.337Z,70.59
2019-02-14T09:26:38.324Z,70.25
2019-02-14T09:27:38.323Z,70.70
2019-02-14T09:28:38.316Z,70.76
2019-02-14T09:29:38.285Z,69.94
2019-02-14T09:30:38.295Z,69.94
2019-02-14T09:31:38.272Z,69.49
2019-02-14T09:32:38.279Z,69.49
2019-02-14T09:33:38.267Z,69.39
2019-02-14T09:34:38.290Z,69.60
2019-02-14T09:35:38.223Z,69.70
2019-02-14T09:36:38.221Z,68.98
2019-02-14T09:37:38.217Z,68.77
2019-02-14T09:38:38.234Z,68.46
2019-02-14T09:39:40.888Z,68.63
2019-02-14T09:40:38.185Z,68.98
2019-02-14T09:41:38.203Z,68.87
2019-02-14T09:42:38.149Z,68.32
2019-02-14T09:43:38.201Z,68.22
2019-02-14T09:44:38.129Z,68.63
2019-02-14T09:45:38.120Z,68.22
2019-02-14T09:46:38.108Z,67.80
2019-02-14T09:47:38.099Z,67.60
2019-02-14T09:48:38.086Z,67.49
2019-02-14T09:49:38.131Z,67.36
2019-02-14T09:50:38.071Z,67.46
2019-02-14T09:51:38.071Z,67.05
2019-02-14T09:52:38.082Z,67.25
2019-02-14T09:53:38.031Z,66.84
2019-02-14T09:54:38.290Z,66.91
2019-02-14T09:55:38.012Z,67.05
2019-02-14T09:56:38.019Z,67.02
2019-02-14T09:57:38.006Z,66.91
2019-02-14T09:58:37.980Z,66.91
2019-02-14T09:59:38.018Z,66.88
2019-02-14T10:00:37.965Z,66.99
2019-02-14T10:01:37.965Z,67.09
2019-02-14T10:02:37.962Z,66.99
2019-02-14T10:03:37.929Z,66.67
2019-02-14T10:04:37.932Z,66.47
2019-02-14T10:05:37.903Z,66.16
2019-02-14T10:06:37.903Z,66.54
2019-02-14T10:07:37.892Z,66.23
2019-02-14T10:08:38.054Z,65.37
2019-02-14T10:09:37.886Z,64.96
2019-02-14T10:10:37.880Z,65.27
2019-02-14T10:11:37.877Z,65.55
2019-02-14T10:12:37.828Z,65.03
2019-02-14T10:13:37.833Z,64.73
2019-02-14T10:14:37.861Z,64.93
2019-02-14T10:15:37.793Z,65.03
2019-02-14T10:16:37.783Z,65.03
2019-02-14T10:17:37.782Z,65.34
2019-02-14T10:18:37.760Z,65.14
2019-02-14T10:19:37.755Z,64.52
2019-02-14T10:20:37.770Z,64.62
2019-02-14T10:21:37.734Z,64.49
2019-02-14T10:22:37.718Z,64.28
2019-02-14T10:23:37.710Z,64.52
2019-02-14T10:24:37.702Z,64.59
2019-02-14T10:25:37.713Z,64.59
2019-02-14T10:26:37.690Z,64.73
2019-02-14T10:27:37.686Z,64.49
2019-02-14T10:28:37.661Z,64.28
2019-02-14T10:29:37.654Z,64.70
2019-02-14T10:30:37.658Z,64.31
2019-02-14T10:31:37.624Z,64.39
2019-02-14T10:32:37.627Z,64.42
2019-02-14T10:33:37.607Z,64.49
2019-02-14T10:34:37.614Z,64.28
2019-02-14T10:35:37.634Z,63.67
2019-02-14T10:36:37.606Z,63.56
2019-02-14T10:37:37.588Z,63.67
2019-02-14T10:38:37.547Z,63.77
2019-02-14T10:39:37.538Z,63.67
2019-02-14T10:40:37.531Z,63.15
2019-02-14T10:41:37.544Z,63.35
2019-02-14T10:42:37.518Z,63.01
2019-02-14T10:43:37.494Z,63.04
2019-02-14T10:44:37.488Z,63.25
2019-02-14T10:45:37.472Z,63.35
2019-02-14T10:46:37.490Z,63.22
2019-02-14T10:47:37.585Z,63.04
2019-02-14T10:48:37.447Z,63.04
2019-02-14T10:49:37.431Z,63.01
2019-02-14T10:50:37.426Z,63.22
2019-02-14T10:51:37.444Z,63.12
2019-02-14T10:52:37.402Z,62.92
2019-02-14T10:53:37.391Z,63.04
2019-02-14T10:54:37.385Z,63.12
2019-02-14T10:55:37.370Z,62.71
2019-02-14T10:56:37.377Z,62.29
2019-02-14T10:57:37.370Z,62.29
2019-02-14T10:58:37.377Z,62.40
2019-02-14T10:59:37.331Z,60.95
2019-02-14T11:00:37.323Z,61.13
2019-02-14T11:01:37.342Z,61.03
2019-02-14T11:02:37.310Z,61.44
2019-02-14T11:03:37.282Z,61.13
2019-02-14T11:04:37.282Z,61.13
2019-02-14T11:05:37.270Z,60.51
2019-02-14T11:06:37.268Z,60.72
2019-02-14T11:07:37.235Z,61.10
2019-02-14T11:08:37.227Z,60.28
2019-02-14T11:09:37.222Z,60.49
2019-02-14T11:10:37.205Z,60.59
2019-02-14T11:11:37.233Z,60.07
2019-02-14T11:12:37.214Z,60.38
2019-02-14T11:13:37.230Z,60.79
2019-02-14T11:14:37.170Z,60.79
2019-02-14T11:15:37.169Z,60.38
2019-02-14T11:16:37.152Z,60.59
2019-02-14T11:17:37.174Z,60.56
2019-02-14T11:18:43.949Z,60.77
2019-02-14T11:19:38.108Z,60.56
2019-02-14T11:20:37.124Z,60.66
2019-02-14T11:21:37.091Z,60.74
2019-02-14T11:22:37.113Z,60.74
2019-02-14T11:23:37.075Z,60.63
2019-02-14T11:24:37.063Z,59.81
2019-02-14T11:25:37.046Z,59.61
2019-02-14T11:26:37.060Z,59.58
2019-02-14T11:27:37.062Z,59.37
2019-02-14T11:28:37.019Z,58.96
2019-02-14T11:29:36.997Z,58.86
2019-02-14T11:30:37.014Z,58.86
2019-02-14T11:31:36.981Z,59.27
2019-02-14T11:32:36.987Z,59.06
2019-02-14T11:33:36.956Z,58.62
2019-02-14T11:34:36.986Z,59.17
2019-02-14T11:35:36.976Z,58.62
2019-02-14T11:36:36.945Z,58.42
2019-02-14T11:37:36.924Z,58.52
2019-02-14T11:38:40.675Z,58.50
2019-02-14T11:39:36.890Z,58.39
2019-02-14T11:40:36.887Z,58.08
2019-02-14T11:41:36.907Z,57.36
2019-02-14T11:42:36.896Z,57.26
2019-02-14T11:43:36.860Z,57.06
2019-02-14T11:44:39.744Z,57.34
2019-02-14T11:45:36.849Z,56.95
2019-02-14T11:46:36.818Z,56.51
2019-02-14T11:47:36.828Z,55.69
2019-02-14T11:48:36.814Z,56.10
2019-02-14T11:49:36.794Z,55.59
2019-02-14T11:50:44.325Z,55.69
2019-02-14T11:51:36.791Z,55.69
2019-02-14T11:52:36.772Z,55.05
2019-02-14T11:53:36.775Z,54.36
2019-02-14T11:54:36.738Z,54.02
2019-02-14T11:55:36.723Z,54.02
2019-02-14T11:56:36.711Z,54.53
2019-02-14T11:57:46.580Z,54.23
2019-02-14T11:58:36.684Z,54.43
2019-02-14T11:59:44.219Z,53.51
2019-02-14T12:00:44.219Z,53.30
2019-02-14T12:01:45.657Z,53.51
2019-02-14T12:02:53.385Z,54.10
2019-02-14T12:04:46.859Z,53.08
2019-02-14T12:05:46.852Z,52.97
2019-02-14T12:06:46.971Z,52.84
2019-02-14T12:07:46.830Z,53.17
2019-02-14T12:08:57.771Z,52.74
2019-02-14T12:09:47.834Z,53.25
2019-02-14T12:10:46.800Z,52.84
2019-02-14T12:11:46.796Z,52.33
2019-02-14T12:12:46.811Z,53.46
2019-02-14T12:13:46.767Z,52.84
2019-02-14T12:14:46.787Z,53.56
2019-02-14T12:15:46.764Z,53.25
2019-02-14T12:16:46.729Z,53.25
2019-02-14T12:17:46.743Z,52.51
2019-02-14T12:18:46.722Z,53.12
2019-02-14T12:19:48.755Z,52.72
2019-02-14T12:20:47.982Z,52.82
2019-02-14T12:21:46.679Z,52.90
2019-02-14T12:22:47.408Z,52.31
2019-02-14T12:23:46.656Z,52.08
2019-02-14T12:24:46.659Z,51.77
2019-02-14T12:25:46.662Z,51.36
2019-02-14T12:26:46.644Z,51.46
2019-02-14T12:27:46.625Z,50.01
2019-02-14T12:28:46.638Z,50.42
2019-02-14T12:29:46.598Z,49.80
2019-02-14T12:30:46.578Z,49.77
2019-02-14T12:31:46.571Z,49.44
2019-02-14T12:32:46.596Z,49.26
2019-02-14T12:33:46.565Z,49.04
2019-02-14T12:34:46.558Z,48.73
2019-02-14T12:35:46.679Z,48.01
2019-02-14T12:36:46.526Z,48.63
2019-02-14T12:37:46.570Z,47.17
2019-02-14T12:38:46.542Z,47.48
2019-02-14T12:39:46.545Z,47.07
2019-02-14T12:40:46.478Z,47.17
2019-02-14T12:41:46.459Z,47.15
2019-02-14T12:42:46.497Z,47.56
2019-02-14T12:43:46.455Z,45.18
2019-02-14T12:44:46.452Z,45.70
2019-02-14T12:45:46.412Z,45.72
2019-02-14T12:46:46.406Z,45.41
2019-02-14T12:47:46.394Z,45.59
2019-02-14T12:48:46.465Z,45.29
2019-02-14T12:49:46.367Z,44.78
2019-02-14T12:50:46.368Z,45.18
2019-02-14T12:51:46.368Z,44.65
2019-02-14T12:52:46.340Z,45.26
2019-02-14T12:53:46.331Z,45.06
2019-02-14T12:54:46.338Z,45.26
2019-02-14T12:55:47.701Z,44.76
2019-02-14T12:56:46.322Z,44.85
2019-02-14T12:57:46.285Z,44.53
2019-02-14T12:58:46.271Z,44.14
2019-02-14T12:59:46.283Z,44.22
2019-02-14T13:00:46.252Z,44.02